Главная страница
METAR-TAF:

METAR-TAF

Аэропорты :

Рига, Латвия

широта: 56-55N, долгота: 023-58E, высота над уровнем моря: 10 м

Текущие метеонаблюдения

Эта сводка был подготовлена 17 минут назад, в 03:50 UTC
Ветер 8 Узел от южный-юго-западный, изменяющийся между южный и западный-юго-западный
Температура 15°C
Влажность 72%
Давление 1013 hPa
Видимость 10 км и более
Сплошная облачность на высоте 4400 фута

METAR: EVRA 150350Z 20008KT 180V240 9999 OVC044 15/10 Q1013 NOSIG

Время: 07:07 (04:07 UTC)

Прогноз

Эта сводка был подготовлена 2 часа и 7 минут назад, в 02:00 UTC
Прогноз действительный с 15-го 03 UTC до 16-го 03 UTC
Ветер 10 Узел от южный
Видимость 10 км и более
Рассеянная облачность на высоте 4000 фута
временами
С 15-го 03 UTC до 15-го 09 UTC
Рассеянная облачность на высоте 3000 фута, Кучево-дождевые.
изменения
С 15-го 05 UTC до 15-го 07 UTC
Ветер 7 Узел от западный

TAF: EVRA 150200Z 1503/1603 18010KT 9999 BKN040 TEMPO 1503/1509 BKN030CB BECMG 1505/1507 28007KT

Метеонаблюдения и прогнозы для более 4000 аэропортов (сводки METAR и TAF).

Имеющиеся станции представлены на карте желтыми и красными точками.

Чтобы увидеть название станции, наведите на нее мышь.

Затем щелкните, чтобы увидеть метеонаблюдения и метеопрогнозы.

Управление картой: чтобы увеличить масштаб, щелкните зеленые кнопки с черным крестиком; чтобы уменьшить масштаб, щелкните зеленую кнопку с тире; для просмотра соседних карт щелкайте зеленые стрелки.


METAR-TAF: